sensor_id;sensor_type;location;lat;lon;timestamp;pressure;altitude;pressure_sealevel;temperature;humidity
23427;BME280;41148;45.420;10.952;2022-09-28T00:00:41;99337.47;;;15.39;87.62
23427;BME280;41148;45.420;10.952;2022-09-28T00:03:10;99338.69;;;15.35;87.68
23427;BME280;41148;45.420;10.952;2022-09-28T00:05:37;99341.25;;;15.36;87.75
23427;BME280;41148;45.420;10.952;2022-09-28T00:08:04;99341.25;;;15.36;87.78
23427;BME280;41148;45.420;10.952;2022-09-28T00:10:31;99338.44;;;15.38;88.01
23427;BME280;41148;45.420;10.952;2022-09-28T00:12:58;99338.78;;;15.46;87.00
23427;BME280;41148;45.420;10.952;2022-09-28T00:15:27;99331.59;;;15.46;87.03
23427;BME280;41148;45.420;10.952;2022-09-28T00:17:55;99334.38;;;15.58;86.61
23427;BME280;41148;45.420;10.952;2022-09-28T00:20:22;99332.00;;;15.53;86.91
23427;BME280;41148;45.420;10.952;2022-09-28T00:22:49;99341.53;;;15.32;88.77
23427;BME280;41148;45.420;10.952;2022-09-28T00:25:16;99339.88;;;15.04;91.44
23427;BME280;41148;45.420;10.952;2022-09-28T00:27:48;99345.53;;;14.86;92.81
23427;BME280;41148;45.420;10.952;2022-09-28T00:30:15;99344.22;;;14.79;93.40
23427;BME280;41148;45.420;10.952;2022-09-28T00:35:35;99344.41;;;14.76;93.03
23427;BME280;41148;45.420;10.952;2022-09-28T00:38:02;99349.13;;;14.46;94.22
23427;BME280;41148;45.420;10.952;2022-09-28T00:40:29;99353.44;;;14.48;94.88
23427;BME280;41148;45.420;10.952;2022-09-28T00:42:57;99338.91;;;14.65;94.08
23427;BME280;41148;45.420;10.952;2022-09-28T00:45:24;99339.25;;;14.73;92.79
23427;BME280;41148;45.420;10.952;2022-09-28T00:47:55;99334.47;;;14.78;92.64
23427;BME280;41148;45.420;10.952;2022-09-28T00:50:31;99340.69;;;14.79;92.35
23427;BME280;41148;45.420;10.952;2022-09-28T00:53:01;99333.78;;;14.75;93.32
23427;BME280;41148;45.420;10.952;2022-09-28T00:57:58;99343.47;;;14.50;94.75
23427;BME280;41148;45.420;10.952;2022-09-28T01:00:27;99339.81;;;14.37;95.91
23427;BME280;41148;45.420;10.952;2022-09-28T01:02:54;99342.44;;;14.24;96.13
23427;BME280;41148;45.420;10.952;2022-09-28T01:05:22;99340.03;;;14.34;94.90
23427;BME280;41148;45.420;10.952;2022-09-28T01:07:50;99329.56;;;14.44;93.88
23427;BME280;41148;45.420;10.952;2022-09-28T01:10:17;99327.19;;;14.39;94.24
23427;BME280;41148;45.420;10.952;2022-09-28T01:12:44;99321.53;;;14.44;93.61
23427;BME280;41148;45.420;10.952;2022-09-28T01:15:12;99314.84;;;14.51;92.62
23427;BME280;41148;45.420;10.952;2022-09-28T01:20:31;99313.31;;;14.47;93.57
23427;BME280;41148;45.420;10.952;2022-09-28T01:25:49;99301.66;;;14.48;93.56
23427;BME280;41148;45.420;10.952;2022-09-28T01:28:18;99316.47;;;14.53;93.66
23427;BME280;41148;45.420;10.952;2022-09-28T01:31:01;99314.34;;;14.58;93.12
23427;BME280;41148;45.420;10.952;2022-09-28T01:34:16;99312.31;;;14.62;92.56
23427;BME280;41148;45.420;10.952;2022-09-28T01:36:26;99324.97;;;14.60;92.35
23427;BME280;41148;45.420;10.952;2022-09-28T01:39:00;99323.25;;;14.59;91.35
23427;BME280;41148;45.420;10.952;2022-09-28T01:41:28;99329.84;;;14.53;91.80
23427;BME280;41148;45.420;10.952;2022-09-28T01:43:56;99325.47;;;14.52;91.50
23427;BME280;41148;45.420;10.952;2022-09-28T01:46:33;99326.44;;;14.51;91.88
23427;BME280;41148;45.420;10.952;2022-09-28T01:49:25;99332.19;;;14.45;92.78
23427;BME280;41148;45.420;10.952;2022-09-28T01:51:52;99335.44;;;14.50;91.32
23427;BME280;41148;45.420;10.952;2022-09-28T01:54:31;99331.91;;;14.50;90.63
23427;BME280;41148;45.420;10.952;2022-09-28T01:59:34;99328.16;;;14.52;88.31
23427;BME280;41148;45.420;10.952;2022-09-28T02:02:15;99330.06;;;14.50;88.33
23427;BME280;41148;45.420;10.952;2022-09-28T02:04:46;99334.84;;;14.45;88.19
23427;BME280;41148;45.420;10.952;2022-09-28T02:07:17;99325.00;;;14.46;85.48
23427;BME280;41148;45.420;10.952;2022-09-28T02:09:51;99317.84;;;14.32;85.96
23427;BME280;41148;45.420;10.952;2022-09-28T02:15:11;99325.03;;;14.31;87.79
23427;BME280;41148;45.420;10.952;2022-09-28T02:17:40;99327.00;;;14.42;86.76
23427;BME280;41148;45.420;10.952;2022-09-28T02:20:11;99330.06;;;14.36;87.29
23427;BME280;41148;45.420;10.952;2022-09-28T02:22:48;99324.22;;;14.02;87.57
23427;BME280;41148;45.420;10.952;2022-09-28T02:28:19;99315.19;;;14.18;86.59
23427;BME280;41148;45.420;10.952;2022-09-28T02:30:48;99318.44;;;14.23;87.39
23427;BME280;41148;45.420;10.952;2022-09-28T02:33:17;99321.06;;;14.10;87.59
23427;BME280;41148;45.420;10.952;2022-09-28T02:35:46;99320.38;;;14.07;87.83
23427;BME280;41148;45.420;10.952;2022-09-28T02:38:14;99318.69;;;13.91;88.89
23427;BME280;41148;45.420;10.952;2022-09-28T02:40:42;99322.31;;;13.76;90.70
23427;BME280;41148;45.420;10.952;2022-09-28T02:51:52;99314.38;;;13.60;92.03
23427;BME280;41148;45.420;10.952;2022-09-28T02:54:38;99304.25;;;13.51;92.60
23427;BME280;41148;45.420;10.952;2022-09-28T02:57:12;99312.09;;;13.54;92.22
23427;BME280;41148;45.420;10.952;2022-09-28T02:59:48;99323.34;;;13.45;93.18
23427;BME280;41148;45.420;10.952;2022-09-28T03:02:41;99335.69;;;13.48;93.57
23427;BME280;41148;45.420;10.952;2022-09-28T03:07:45;99330.25;;;13.63;93.31
23427;BME280;41148;45.420;10.952;2022-09-28T03:10:36;99329.00;;;13.83;91.67
23427;BME280;41148;45.420;10.952;2022-09-28T03:13:04;99325.09;;;13.74;91.46
23427;BME280;41148;45.420;10.952;2022-09-28T03:15:33;99316.66;;;13.66;91.72
23427;BME280;41148;45.420;10.952;2022-09-28T03:18:01;99311.69;;;13.60;92.56
23427;BME280;41148;45.420;10.952;2022-09-28T03:20:28;99310.28;;;13.55;92.41
23427;BME280;41148;45.420;10.952;2022-09-28T03:22:56;99314.19;;;13.49;92.67
23427;BME280;41148;45.420;10.952;2022-09-28T03:25:43;99319.16;;;13.55;92.83
23427;BME280;41148;45.420;10.952;2022-09-28T03:28:10;99313.63;;;13.44;93.54
23427;BME280;41148;45.420;10.952;2022-09-28T03:30:39;99313.59;;;13.58;93.24
23427;BME280;41148;45.420;10.952;2022-09-28T03:33:09;99314.94;;;13.80;92.19
23427;BME280;41148;45.420;10.952;2022-09-28T03:35:37;99307.88;;;13.93;90.46
23427;BME280;41148;45.420;10.952;2022-09-28T03:38:04;99307.56;;;14.12;89.50
23427;BME280;41148;45.420;10.952;2022-09-28T03:40:34;99309.44;;;14.24;88.69
23427;BME280;41148;45.420;10.952;2022-09-28T03:43:01;99296.91;;;14.24;88.62
23427;BME280;41148;45.420;10.952;2022-09-28T03:45:28;99304.06;;;14.24;88.21
23427;BME280;41148;45.420;10.952;2022-09-28T03:47:56;99308.97;;;14.17;88.82
23427;BME280;41148;45.420;10.952;2022-09-28T03:50:23;99307.25;;;14.16;89.08
23427;BME280;41148;45.420;10.952;2022-09-28T03:52:50;99313.47;;;14.17;89.02
23427;BME280;41148;45.420;10.952;2022-09-28T03:55:17;99310.78;;;14.17;88.82
23427;BME280;41148;45.420;10.952;2022-09-28T03:57:51;99322.09;;;14.08;89.86
23427;BME280;41148;45.420;10.952;2022-09-28T04:00:18;99322.22;;;13.92;91.12
23427;BME280;41148;45.420;10.952;2022-09-28T04:02:45;99308.63;;;13.95;91.05
23427;BME280;41148;45.420;10.952;2022-09-28T04:05:12;99310.34;;;13.96;91.27
23427;BME280;41148;45.420;10.952;2022-09-28T04:07:39;99305.94;;;13.95;91.85
23427;BME280;41148;45.420;10.952;2022-09-28T04:10:07;99302.63;;;13.77;92.79
23427;BME280;41148;45.420;10.952;2022-09-28T04:12:34;99300.78;;;13.78;93.20
23427;BME280;41148;45.420;10.952;2022-09-28T04:15:01;99304.81;;;13.85;92.85
23427;BME280;41148;45.420;10.952;2022-09-28T04:17:47;99298.13;;;13.92;92.91
23427;BME280;41148;45.420;10.952;2022-09-28T04:20:30;99300.31;;;13.99;92.29
23427;BME280;41148;45.420;10.952;2022-09-28T04:23:02;99296.00;;;13.97;92.55
23427;BME280;41148;45.420;10.952;2022-09-28T04:25:30;99298.56;;;13.98;92.50
23427;BME280;41148;45.420;10.952;2022-09-28T04:27:57;99291.13;;;14.03;92.51
23427;BME280;41148;45.420;10.952;2022-09-28T04:30:44;99292.47;;;13.96;92.70
23427;BME280;41148;45.420;10.952;2022-09-28T04:33:12;99285.88;;;14.02;92.83
23427;BME280;41148;45.420;10.952;2022-09-28T04:35:39;99285.09;;;14.00;93.12
23427;BME280;41148;45.420;10.952;2022-09-28T04:38:06;99290.19;;;13.76;95.38
23427;BME280;41148;45.420;10.952;2022-09-28T04:40:34;99294.59;;;13.77;95.80
23427;BME280;41148;45.420;10.952;2022-09-28T04:43:01;99280.44;;;13.75;95.89
23427;BME280;41148;45.420;10.952;2022-09-28T04:45:29;99281.41;;;13.60;97.36
23427;BME280;41148;45.420;10.952;2022-09-28T04:48:04;99279.78;;;13.71;97.07
23427;BME280;41148;45.420;10.952;2022-09-28T04:51:10;99290.75;;;13.95;94.38
23427;BME280;41148;45.420;10.952;2022-09-28T04:53:37;99299.75;;;13.94;94.08
23427;BME280;41148;45.420;10.952;2022-09-28T04:56:05;99294.59;;;13.91;94.66
23427;BME280;41148;45.420;10.952;2022-09-28T04:58:33;99292.34;;;13.98;94.12
23427;BME280;41148;45.420;10.952;2022-09-28T05:01:02;99297.91;;;13.95;93.80
23427;BME280;41148;45.420;10.952;2022-09-28T05:03:57;99295.88;;;13.98;94.10
23427;BME280;41148;45.420;10.952;2022-09-28T05:06:44;99286.94;;;13.99;94.10
23427;BME280;41148;45.420;10.952;2022-09-28T05:09:12;99281.47;;;14.01;93.87
23427;BME280;41148;45.420;10.952;2022-09-28T05:11:39;99286.50;;;14.06;93.32
23427;BME280;41148;45.420;10.952;2022-09-28T05:14:13;99298.94;;;14.07;93.44
23427;BME280;41148;45.420;10.952;2022-09-28T05:16:40;99298.41;;;14.01;93.78
23427;BME280;41148;45.420;10.952;2022-09-28T05:19:20;99299.34;;;14.00;94.12
23427;BME280;41148;45.420;10.952;2022-09-28T05:21:48;99299.25;;;14.02;93.76
23427;BME280;41148;45.420;10.952;2022-09-28T05:24:15;99303.75;;;14.01;94.13
23427;BME280;41148;45.420;10.952;2022-09-28T05:26:48;99300.13;;;14.02;94.23
23427;BME280;41148;45.420;10.952;2022-09-28T05:29:15;99299.69;;;14.09;93.45
23427;BME280;41148;45.420;10.952;2022-09-28T05:31:52;99295.50;;;14.04;93.95
23427;BME280;41148;45.420;10.952;2022-09-28T05:34:38;99301.72;;;14.05;93.72
23427;BME280;41148;45.420;10.952;2022-09-28T05:37:05;99297.22;;;14.06;93.90
23427;BME280;41148;45.420;10.952;2022-09-28T05:39:33;99296.25;;;14.07;94.10
23427;BME280;41148;45.420;10.952;2022-09-28T05:42:00;99294.44;;;14.07;93.63
23427;BME280;41148;45.420;10.952;2022-09-28T05:44:28;99297.97;;;14.08;93.28
23427;BME280;41148;45.420;10.952;2022-09-28T05:46:55;99294.53;;;14.06;92.67
23427;BME280;41148;45.420;10.952;2022-09-28T05:49:23;99300.13;;;13.88;94.74
23427;BME280;41148;45.420;10.952;2022-09-28T05:51:50;99297.09;;;13.80;95.23
23427;BME280;41148;45.420;10.952;2022-09-28T05:54:17;99298.31;;;13.74;96.00
23427;BME280;41148;45.420;10.952;2022-09-28T05:56:45;99296.72;;;13.72;96.66
23427;BME280;41148;45.420;10.952;2022-09-28T05:59:13;99287.41;;;13.78;96.38
23427;BME280;41148;45.420;10.952;2022-09-28T06:01:40;99293.16;;;13.86;95.90
23427;BME280;41148;45.420;10.952;2022-09-28T06:04:09;99294.47;;;13.93;96.20
23427;BME280;41148;45.420;10.952;2022-09-28T06:06:37;99298.19;;;14.04;95.01
23427;BME280;41148;45.420;10.952;2022-09-28T06:09:04;99295.66;;;14.16;93.99
23427;BME280;41148;45.420;10.952;2022-09-28T06:11:52;99292.59;;;14.22;93.77
23427;BME280;41148;45.420;10.952;2022-09-28T06:14:28;99294.22;;;14.24;94.04
23427;BME280;41148;45.420;10.952;2022-09-28T06:16:57;99294.88;;;14.28;93.24
23427;BME280;41148;45.420;10.952;2022-09-28T06:19:24;99296.50;;;14.30;93.18
23427;BME280;41148;45.420;10.952;2022-09-28T06:22:10;99285.38;;;14.37;92.10
23427;BME280;41148;45.420;10.952;2022-09-28T06:24:44;99282.91;;;14.33;87.86
23427;BME280;41148;45.420;10.952;2022-09-28T06:27:11;99291.91;;;14.32;85.20
23427;BME280;41148;45.420;10.952;2022-09-28T06:29:38;99288.72;;;14.40;84.57
23427;BME280;41148;45.420;10.952;2022-09-28T06:32:23;99289.97;;;14.49;82.49
23427;BME280;41148;45.420;10.952;2022-09-28T06:34:51;99290.94;;;14.48;77.80
23427;BME280;41148;45.420;10.952;2022-09-28T06:37:43;99287.72;;;14.55;79.60
23427;BME280;41148;45.420;10.952;2022-09-28T06:40:10;99288.19;;;14.62;77.18
23427;BME280;41148;45.420;10.952;2022-09-28T06:42:37;99276.84;;;14.71;76.81
23427;BME280;41148;45.420;10.952;2022-09-28T06:45:28;99283.69;;;14.63;74.10
23427;BME280;41148;45.420;10.952;2022-09-28T06:48:08;99275.78;;;14.74;75.16
23427;BME280;41148;45.420;10.952;2022-09-28T06:50:40;99284.53;;;14.90;75.33
23427;BME280;41148;45.420;10.952;2022-09-28T06:53:27;99273.06;;;15.13;74.04
23427;BME280;41148;45.420;10.952;2022-09-28T06:56:08;99280.69;;;15.20;74.51
23427;BME280;41148;45.420;10.952;2022-09-28T06:58:36;99275.78;;;15.26;74.53
23427;BME280;41148;45.420;10.952;2022-09-28T07:01:03;99271.78;;;15.19;74.94
23427;BME280;41148;45.420;10.952;2022-09-28T07:03:54;99265.78;;;15.28;73.51
23427;BME280;41148;45.420;10.952;2022-09-28T07:06:45;99268.03;;;15.22;73.79
23427;BME280;41148;45.420;10.952;2022-09-28T07:09:44;99259.75;;;15.25;74.07
23427;BME280;41148;45.420;10.952;2022-09-28T07:12:34;99260.19;;;15.18;73.97
23427;BME280;41148;45.420;10.952;2022-09-28T07:15:11;99260.41;;;15.28;73.95
23427;BME280;41148;45.420;10.952;2022-09-28T07:17:38;99265.34;;;15.47;71.93
23427;BME280;41148;45.420;10.952;2022-09-28T07:20:23;99262.56;;;15.36;72.62
23427;BME280;41148;45.420;10.952;2022-09-28T07:22:52;99255.69;;;15.32;72.34
23427;BME280;41148;45.420;10.952;2022-09-28T07:25:21;99264.41;;;15.35;72.59
23427;BME280;41148;45.420;10.952;2022-09-28T07:28:06;99258.69;;;15.40;72.21
23427;BME280;41148;45.420;10.952;2022-09-28T07:31:08;99262.97;;;15.42;71.68
23427;BME280;41148;45.420;10.952;2022-09-28T07:33:53;99259.75;;;15.50;71.19
23427;BME280;41148;45.420;10.952;2022-09-28T07:36:38;99261.06;;;15.57;71.30
23427;BME280;41148;45.420;10.952;2022-09-28T07:39:05;99263.22;;;15.65;71.55
23427;BME280;41148;45.420;10.952;2022-09-28T07:41:32;99273.19;;;15.63;70.14
23427;BME280;41148;45.420;10.952;2022-09-28T07:44:02;99272.47;;;15.73;68.79
23427;BME280;41148;45.420;10.952;2022-09-28T07:46:35;99272.00;;;15.80;69.22
23427;BME280;41148;45.420;10.952;2022-09-28T07:49:34;99266.31;;;15.84;68.88
23427;BME280;41148;45.420;10.952;2022-09-28T07:52:25;99269.84;;;15.85;67.93
23427;BME280;41148;45.420;10.952;2022-09-28T07:55:06;99270.16;;;15.93;66.79
23427;BME280;41148;45.420;10.952;2022-09-28T07:57:45;99276.66;;;16.01;66.19
23427;BME280;41148;45.420;10.952;2022-09-28T08:00:22;99276.84;;;16.11;65.51
23427;BME280;41148;45.420;10.952;2022-09-28T08:02:49;99279.88;;;16.07;64.68
23427;BME280;41148;45.420;10.952;2022-09-28T08:05:21;99284.59;;;16.16;64.52
23427;BME280;41148;45.420;10.952;2022-09-28T08:07:48;99286.25;;;16.29;63.77
23427;BME280;41148;45.420;10.952;2022-09-28T08:10:16;99290.66;;;16.30;63.71
23427;BME280;41148;45.420;10.952;2022-09-28T08:12:43;99285.19;;;16.32;63.84
23427;BME280;41148;45.420;10.952;2022-09-28T08:15:27;99285.06;;;16.34;62.86
23427;BME280;41148;45.420;10.952;2022-09-28T08:18:08;99282.88;;;16.39;62.66
23427;BME280;41148;45.420;10.952;2022-09-28T08:20:36;99287.41;;;16.38;62.25
23427;BME280;41148;45.420;10.952;2022-09-28T08:23:22;99283.84;;;16.50;61.77
23427;BME280;41148;45.420;10.952;2022-09-28T08:25:50;99285.91;;;16.58;61.68
23427;BME280;41148;45.420;10.952;2022-09-28T08:28:22;99283.59;;;16.53;61.73
23427;BME280;41148;45.420;10.952;2022-09-28T08:30:52;99280.84;;;16.66;60.90
23427;BME280;41148;45.420;10.952;2022-09-28T08:36:51;99284.25;;;16.81;60.03
23427;BME280;41148;45.420;10.952;2022-09-28T08:39:37;99286.31;;;16.88;60.08
23427;BME280;41148;45.420;10.952;2022-09-28T08:42:38;99281.91;;;16.87;61.28
23427;BME280;41148;45.420;10.952;2022-09-28T08:45:32;99279.19;;;17.11;60.32
23427;BME280;41148;45.420;10.952;2022-09-28T08:48:12;99282.91;;;17.33;59.10
23427;BME280;41148;45.420;10.952;2022-09-28T08:51:19;99282.47;;;17.84;57.17
23427;BME280;41148;45.420;10.952;2022-09-28T08:56:53;99289.28;;;18.33;55.46
23427;BME280;41148;45.420;10.952;2022-09-28T08:59:21;99288.44;;;18.32;55.12
23427;BME280;41148;45.420;10.952;2022-09-28T09:02:00;99288.81;;;18.27;55.54
23427;BME280;41148;45.420;10.952;2022-09-28T09:04:31;99292.06;;;18.42;55.05
23427;BME280;41148;45.420;10.952;2022-09-28T09:12:16;99289.31;;;18.76;53.34
23427;BME280;41148;45.420;10.952;2022-09-28T09:14:56;99296.34;;;18.56;53.92
23427;BME280;41148;45.420;10.952;2022-09-28T09:25:55;99284.41;;;18.26;53.46
23427;BME280;41148;45.420;10.952;2022-09-28T09:37:01;99266.47;;;18.48;54.13
23427;BME280;41148;45.420;10.952;2022-09-28T09:45:41;99264.06;;;18.34;54.86
23427;BME280;41148;45.420;10.952;2022-09-28T09:48:35;99260.16;;;18.26;56.12
23427;BME280;41148;45.420;10.952;2022-09-28T09:51:12;99256.22;;;18.30;56.13
23427;BME280;41148;45.420;10.952;2022-09-28T09:53:44;99257.28;;;18.39;56.41
23427;BME280;41148;45.420;10.952;2022-09-28T09:56:20;99248.94;;;18.42;55.20
23427;BME280;41148;45.420;10.952;2022-09-28T09:59:05;99249.28;;;18.49;55.05
23427;BME280;41148;45.420;10.952;2022-09-28T10:01:54;99256.53;;;18.48;55.50
23427;BME280;41148;45.420;10.952;2022-09-28T10:04:48;99249.00;;;18.63;55.18
23427;BME280;41148;45.420;10.952;2022-09-28T10:07:22;99242.75;;;18.63;54.15
23427;BME280;41148;45.420;10.952;2022-09-28T10:09:52;99235.88;;;18.70;54.67
23427;BME280;41148;45.420;10.952;2022-09-28T10:12:41;99235.94;;;18.79;54.89
23427;BME280;41148;45.420;10.952;2022-09-28T10:15:12;99243.25;;;18.88;54.11
23427;BME280;41148;45.420;10.952;2022-09-28T10:17:50;99240.13;;;18.83;53.42
23427;BME280;41148;45.420;10.952;2022-09-28T10:20:37;99236.94;;;18.78;53.26
23427;BME280;41148;45.420;10.952;2022-09-28T10:23:20;99235.81;;;18.81;54.11
23427;BME280;41148;45.420;10.952;2022-09-28T10:25:50;99234.44;;;18.86;54.03
23427;BME280;41148;45.420;10.952;2022-09-28T10:28:20;99242.03;;;18.93;52.83
23427;BME280;41148;45.420;10.952;2022-09-28T10:30:52;99249.44;;;18.79;53.29
23427;BME280;41148;45.420;10.952;2022-09-28T10:33:32;99244.13;;;18.89;54.01
23427;BME280;41148;45.420;10.952;2022-09-28T10:36:00;99232.88;;;18.84;53.14
23427;BME280;41148;45.420;10.952;2022-09-28T10:38:30;99243.53;;;18.85;52.64
23427;BME280;41148;45.420;10.952;2022-09-28T10:41:13;99234.25;;;18.78;52.96
23427;BME280;41148;45.420;10.952;2022-09-28T10:44:05;99235.72;;;18.82;52.23
23427;BME280;41148;45.420;10.952;2022-09-28T10:47:03;99232.66;;;18.76;52.49
23427;BME280;41148;45.420;10.952;2022-09-28T10:49:39;99231.28;;;18.81;52.89
23427;BME280;41148;45.420;10.952;2022-09-28T10:54:55;99227.34;;;18.85;52.57
23427;BME280;41148;45.420;10.952;2022-09-28T10:57:33;99228.13;;;18.76;52.98
23427;BME280;41148;45.420;10.952;2022-09-28T11:00:04;99225.34;;;18.67;53.15
23427;BME280;41148;45.420;10.952;2022-09-28T11:02:39;99222.13;;;18.62;53.50
23427;BME280;41148;45.420;10.952;2022-09-28T11:05:21;99229.03;;;18.66;53.74
23427;BME280;41148;45.420;10.952;2022-09-28T11:07:53;99227.53;;;18.73;53.53
23427;BME280;41148;45.420;10.952;2022-09-28T11:10:30;99223.09;;;18.72;53.28
23427;BME280;41148;45.420;10.952;2022-09-28T11:13:08;99220.16;;;18.75;53.35
23427;BME280;41148;45.420;10.952;2022-09-28T11:15:40;99204.34;;;18.91;53.17
23427;BME280;41148;45.420;10.952;2022-09-28T11:18:17;99205.97;;;18.94;53.20
23427;BME280;41148;45.420;10.952;2022-09-28T11:20:45;99198.91;;;19.02;53.22
23427;BME280;41148;45.420;10.952;2022-09-28T11:23:20;99193.69;;;18.90;54.20
23427;BME280;41148;45.420;10.952;2022-09-28T11:25:55;99187.94;;;18.94;54.17
23427;BME280;41148;45.420;10.952;2022-09-28T11:28:26;99193.47;;;18.93;54.57
23427;BME280;41148;45.420;10.952;2022-09-28T11:30:55;99194.44;;;18.92;54.80
23427;BME280;41148;45.420;10.952;2022-09-28T11:36:37;99182.84;;;19.22;53.18
23427;BME280;41148;45.420;10.952;2022-09-28T11:39:10;99183.06;;;19.19;53.73
23427;BME280;41148;45.420;10.952;2022-09-28T11:49:37;99176.38;;;19.13;54.33
23427;BME280;41148;45.420;10.952;2022-09-28T11:52:09;99167.22;;;19.25;53.73
23427;BME280;41148;45.420;10.952;2022-09-28T11:54:41;99165.94;;;19.29;54.26
23427;BME280;41148;45.420;10.952;2022-09-28T11:57:12;99164.22;;;19.28;53.72
23427;BME280;41148;45.420;10.952;2022-09-28T12:00:26;99165.03;;;19.40;53.57
23427;BME280;41148;45.420;10.952;2022-09-28T12:02:34;99163.41;;;19.37;53.90
23427;BME280;41148;45.420;10.952;2022-09-28T12:07:50;99149.97;;;19.47;54.29
23427;BME280;41148;45.420;10.952;2022-09-28T12:10:42;99153.38;;;19.49;53.86
23427;BME280;41148;45.420;10.952;2022-09-28T12:13:17;99141.13;;;19.45;53.27
23427;BME280;41148;45.420;10.952;2022-09-28T12:18:53;99152.09;;;19.43;53.36
23427;BME280;41148;45.420;10.952;2022-09-28T12:21:30;99149.09;;;19.47;53.35
23427;BME280;41148;45.420;10.952;2022-09-28T12:24:01;99149.81;;;19.49;53.39
23427;BME280;41148;45.420;10.952;2022-09-28T12:26:38;99148.31;;;19.56;53.00
23427;BME280;41148;45.420;10.952;2022-09-28T12:29:12;99138.03;;;19.50;53.28
23427;BME280;41148;45.420;10.952;2022-09-28T12:31:58;99135.34;;;19.50;53.80
23427;BME280;41148;45.420;10.952;2022-09-28T12:34:28;99132.19;;;19.44;53.73
23427;BME280;41148;45.420;10.952;2022-09-28T12:42:29;99133.00;;;19.35;53.90
23427;BME280;41148;45.420;10.952;2022-09-28T12:45:05;99130.06;;;19.48;53.72
23427;BME280;41148;45.420;10.952;2022-09-28T12:47:58;99128.31;;;19.37;54.00
23427;BME280;41148;45.420;10.952;2022-09-28T12:50:39;99130.97;;;19.28;54.24
23427;BME280;41148;45.420;10.952;2022-09-28T12:56:11;99128.75;;;19.33;54.54
23427;BME280;41148;45.420;10.952;2022-09-28T12:59:06;99128.47;;;19.36;54.55
23427;BME280;41148;45.420;10.952;2022-09-28T13:04:29;99125.50;;;19.49;54.29
23427;BME280;41148;45.420;10.952;2022-09-28T13:07:04;99128.91;;;19.41;53.82
23427;BME280;41148;45.420;10.952;2022-09-28T13:12:24;99125.47;;;19.39;53.38
23427;BME280;41148;45.420;10.952;2022-09-28T13:20:33;99120.94;;;19.39;54.58
23427;BME280;41148;45.420;10.952;2022-09-28T13:25:33;99121.94;;;19.48;53.98
23427;BME280;41148;45.420;10.952;2022-09-28T13:28:03;99113.81;;;19.38;54.88
23427;BME280;41148;45.420;10.952;2022-09-28T13:30:34;99108.31;;;19.40;54.94
23427;BME280;41148;45.420;10.952;2022-09-28T13:33:04;99103.91;;;19.49;53.99
23427;BME280;41148;45.420;10.952;2022-09-28T13:35:33;99104.91;;;19.48;54.21
23427;BME280;41148;45.420;10.952;2022-09-28T13:43:33;99100.88;;;19.32;54.29
23427;BME280;41148;45.420;10.952;2022-09-28T13:46:07;99083.81;;;19.32;55.23
23427;BME280;41148;45.420;10.952;2022-09-28T13:48:46;99088.94;;;19.35;55.26
23427;BME280;41148;45.420;10.952;2022-09-28T13:51:25;99087.28;;;19.43;53.86
23427;BME280;41148;45.420;10.952;2022-09-28T13:58:56;99081.31;;;19.50;54.11
23427;BME280;41148;45.420;10.952;2022-09-28T14:04:15;99082.44;;;19.47;53.26
23427;BME280;41148;45.420;10.952;2022-09-28T14:14:59;99067.38;;;19.44;53.00
23427;BME280;41148;45.420;10.952;2022-09-28T14:19:55;99061.31;;;19.62;52.55
23427;BME280;41148;45.420;10.952;2022-09-28T14:30:04;99071.22;;;19.52;54.20
23427;BME280;41148;45.420;10.952;2022-09-28T14:32:32;99069.69;;;19.59;53.39
23427;BME280;41148;45.420;10.952;2022-09-28T14:35:06;99070.38;;;19.51;53.67
23427;BME280;41148;45.420;10.952;2022-09-28T14:37:47;99082.75;;;19.54;53.64
23427;BME280;41148;45.420;10.952;2022-09-28T14:48:46;99070.38;;;19.51;54.34
23427;BME280;41148;45.420;10.952;2022-09-28T14:53:53;99059.69;;;19.40;55.20
23427;BME280;41148;45.420;10.952;2022-09-28T14:56:22;99063.09;;;19.42;55.04
23427;BME280;41148;45.420;10.952;2022-09-28T14:58:50;99056.84;;;19.41;55.37
23427;BME280;41148;45.420;10.952;2022-09-28T15:01:19;99065.50;;;19.35;55.10
23427;BME280;41148;45.420;10.952;2022-09-28T15:03:48;99075.97;;;19.29;55.28
23427;BME280;41148;45.420;10.952;2022-09-28T15:06:17;99066.91;;;19.39;54.87
23427;BME280;41148;45.420;10.952;2022-09-28T15:08:45;99063.78;;;19.34;54.80
23427;BME280;41148;45.420;10.952;2022-09-28T15:11:17;99070.88;;;19.26;55.20
23427;BME280;41148;45.420;10.952;2022-09-28T15:13:45;99060.22;;;19.24;55.19
23427;BME280;41148;45.420;10.952;2022-09-28T15:16:14;99060.63;;;19.29;55.19
23427;BME280;41148;45.420;10.952;2022-09-28T15:21:35;99061.19;;;19.23;56.15
23427;BME280;41148;45.420;10.952;2022-09-28T15:24:22;99064.78;;;19.33;56.06
23427;BME280;41148;45.420;10.952;2022-09-28T15:26:49;99062.22;;;19.32;55.91
23427;BME280;41148;45.420;10.952;2022-09-28T15:29:17;99053.53;;;19.28;56.17
23427;BME280;41148;45.420;10.952;2022-09-28T15:31:45;99049.41;;;19.24;56.50
23427;BME280;41148;45.420;10.952;2022-09-28T15:37:20;99046.72;;;19.24;56.55
23427;BME280;41148;45.420;10.952;2022-09-28T15:39:49;99042.97;;;19.15;56.87
23427;BME280;41148;45.420;10.952;2022-09-28T15:42:17;99045.38;;;19.09;57.14
23427;BME280;41148;45.420;10.952;2022-09-28T15:44:58;99046.69;;;19.14;56.50
23427;BME280;41148;45.420;10.952;2022-09-28T15:47:27;99053.50;;;19.19;56.54
23427;BME280;41148;45.420;10.952;2022-09-28T15:49:56;99047.84;;;19.22;56.45
23427;BME280;41148;45.420;10.952;2022-09-28T15:55:18;99052.47;;;19.10;57.29
23427;BME280;41148;45.420;10.952;2022-09-28T15:57:46;99056.13;;;18.99;57.44
23427;BME280;41148;45.420;10.952;2022-09-28T16:00:27;99051.16;;;18.95;57.79
23427;BME280;41148;45.420;10.952;2022-09-28T16:02:59;99052.31;;;19.02;57.04